Time;durP1;ratioP1;P1;durP2;ratioP2;P2;SDS_P1;SDS_P2;PMS_P1;PMS_P2;Temp;Humidity;BMP_temperature;BMP_pressure;BME280_temperature;BME280_humidity;BME280_pressure;Samples;Min_cycle;Max_cycle;Signal;HPM_P1;HPM_P2
2023/05/22 00:47:37;;;;;;;3.20;2.10;;;;;;;16.44;85.53;100909.48;106577;1257;69738;-79
2023/05/22 00:50:25;;;;;;;5.40;2.10;;;;;;;16.33;87.28;100907.30;106482;1253;72557;-86
2023/05/22 00:53:13;;;;;;;4.10;2.00;;;;;;;16.28;87.67;100907.34;106418;1254;61225;-86
2023/05/22 00:56:01;;;;;;;2.90;2.00;;;;;;;16.16;88.72;100909.01;106594;1254;61397;-85
2023/05/22 00:58:50;;;;;;;6.00;2.60;;;;;;;15.92;91.26;100911.11;106565;1252;74851;-79
2023/05/22 01:01:41;;;;;;;8.20;2.40;;;;;;;15.90;91.64;100910.65;106646;1256;68060;-79
2023/05/22 01:04:31;;;;;;;3.30;2.10;;;;;;;15.79;93.99;100908.55;106538;1254;73915;-79
2023/05/22 01:07:20;;;;;;;4.60;2.10;;;;;;;15.66;95.35;100915.80;106557;1252;61430;-79
2023/05/22 01:10:09;;;;;;;2.80;2.50;;;;;;;15.59;96.40;100917.52;106546;1254;60377;-86
2023/05/22 01:13:06;;;;;;;3.50;2.10;;;;;;;15.51;97.54;100917.59;106546;1254;75310;-79
2023/05/22 01:16:13;;;;;;;4.60;2.20;;;;;;;15.32;99.66;100924.09;106445;1252;69485;-84
2023/05/22 01:19:11;;;;;;;4.70;2.40;;;;;;;15.23;100.00;100919.86;106671;1252;74005;-79
2023/05/22 01:22:05;;;;;;;2.80;2.20;;;;;;;15.10;100.00;100914.23;106519;1257;61068;-86
2023/05/22 01:25:10;;;;;;;5.10;2.70;;;;;;;14.96;100.00;100912.50;106431;1252;60257;-79
2023/05/22 01:28:01;;;;;;;4.90;2.20;;;;;;;14.87;100.00;100918.86;106688;1254;74616;-85
2023/05/22 01:31:09;;;;;;;3.90;2.30;;;;;;;14.78;100.00;100919.80;106534;1254;69882;-85
2023/05/22 01:34:00;;;;;;;7.80;2.40;;;;;;;14.68;100.00;100922.85;106504;1253;74165;-80
2023/05/22 01:36:47;;;;;;;4.80;2.20;;;;;;;14.58;100.00;100918.36;107045;1254;60507;-86
2023/05/22 01:39:35;;;;;;;2.90;2.20;;;;;;;14.50;100.00;100924.98;106367;1253;60476;-80
2023/05/22 01:42:23;;;;;;;3.20;2.50;;;;;;;14.45;100.00;100926.53;106484;1254;74018;-79
2023/05/22 01:45:11;;;;;;;5.10;2.50;;;;;;;14.41;100.00;100930.59;106657;1254;69710;-86
2023/05/22 01:47:59;;;;;;;3.70;2.60;;;;;;;14.35;100.00;100933.68;106366;1254;73883;-86
2023/05/22 01:50:47;;;;;;;5.50;2.60;;;;;;;14.32;100.00;100928.89;106532;1254;60542;-79
2023/05/22 01:53:41;;;;;;;4.90;2.50;;;;;;;14.26;100.00;100927.52;106519;1253;61232;-80
2023/05/22 01:56:33;;;;;;;;;;;;;;;14.27;100.00;100922.90;106704;1254;76018;-81
2023/05/22 01:59:53;;;;;;;5.10;2.50;;;;;;;14.15;100.00;100926.27;106365;1254;69639;-85
2023/05/22 02:02:44;;;;;;;4.80;2.50;;;;;;;14.05;100.00;100946.87;106606;1254;73708;-85
2023/05/22 02:05:32;;;;;;;5.00;2.30;;;;;;;14.09;100.00;100938.58;106602;1253;61260;-85
2023/05/22 02:08:20;;;;;;;5.10;2.60;;;;;;;14.05;100.00;100937.86;106517;1253;61865;-85
2023/05/22 02:11:09;;;;;;;6.30;2.70;;;;;;;14.10;100.00;100944.61;106470;1256;75063;-80
2023/05/22 02:13:57;;;;;;;3.30;2.30;;;;;;;14.23;100.00;100942.56;106660;1254;69917;-79
2023/05/22 02:16:46;;;;;;;5.50;2.60;;;;;;;14.29;100.00;100945.19;106649;1256;72157;-86
2023/05/22 02:19:34;;;;;;;3.70;2.40;;;;;;;14.40;100.00;100943.70;106442;1253;61511;-85
2023/05/22 02:22:23;;;;;;;6.20;2.30;;;;;;;14.45;100.00;100939.08;106527;1254;61330;-80
2023/05/22 02:25:15;;;;;;;4.00;2.60;;;;;;;14.41;100.00;100938.61;106512;1254;73623;-85
2023/05/22 02:28:04;;;;;;;5.20;2.70;;;;;;;14.46;100.00;100931.36;106659;1253;68023;-86
2023/05/22 02:30:52;;;;;;;4.20;2.70;;;;;;;14.47;100.00;100932.01;106384;1254;73636;-85
2023/05/22 02:33:40;;;;;;;5.50;2.80;;;;;;;14.42;100.00;100931.68;106429;1252;61080;-79
2023/05/22 02:36:29;;;;;;;3.30;2.40;;;;;;;14.22;100.00;100935.65;106416;1256;61317;-86
2023/05/22 02:39:18;;;;;;;7.00;2.80;;;;;;;14.26;100.00;100929.67;106402;1256;74710;-85
2023/05/22 02:42:06;;;;;;;6.20;2.90;;;;;;;14.31;100.00;100933.30;106758;1253;69955;-86
2023/05/22 02:44:54;;;;;;;4.80;2.80;;;;;;;14.36;100.00;100934.56;106424;1253;73444;-79
2023/05/22 02:47:43;;;;;;;5.00;2.80;;;;;;;14.42;100.00;100932.29;106479;1254;61498;-79
2023/05/22 02:50:32;;;;;;;5.70;2.80;;;;;;;14.49;100.00;100934.52;106549;1253;61326;-80
2023/05/22 02:53:20;;;;;;;3.70;2.50;;;;;;;14.55;100.00;100930.89;106564;1252;73225;-79
2023/05/22 02:56:11;;;;;;;3.80;2.40;;;;;;;14.64;100.00;100925.93;106531;1256;67591;-79
2023/05/22 02:58:59;;;;;;;3.70;2.40;;;;;;;14.77;100.00;100925.83;106655;1254;73713;-85
2023/05/22 03:01:47;;;;;;;4.90;2.70;;;;;;;14.89;100.00;100926.21;106650;1254;61597;-86
2023/05/22 03:04:37;;;;;;;4.10;2.70;;;;;;;14.99;100.00;100925.89;106613;1256;61214;-80
2023/05/22 03:07:28;;;;;;;5.60;2.50;;;;;;;15.11;100.00;100926.32;106800;1253;75095;-80
2023/05/22 03:10:16;;;;;;;2.60;2.10;;;;;;;15.16;100.00;100920.20;106626;1253;70278;-86
2023/05/22 03:13:04;;;;;;;4.70;2.70;;;;;;;15.26;100.00;100925.14;106357;1253;73907;-86
2023/05/22 03:15:52;;;;;;;10.00;2.90;;;;;;;15.40;100.00;100926.65;106632;1254;62962;-84
2023/05/22 03:18:40;;;;;;;6.20;3.20;;;;;;;15.57;100.00;100921.58;106502;1254;61386;-86
2023/05/22 03:21:28;;;;;;;4.90;2.70;;;;;;;15.73;100.00;100919.67;106565;1252;74932;-85
2023/05/22 03:24:16;;;;;;;5.00;2.50;;;;;;;15.89;100.00;100912.89;106637;1254;69818;-80
2023/05/22 03:27:04;;;;;;;6.60;2.90;;;;;;;16.18;100.00;100908.86;106659;1251;72677;-85
2023/05/22 03:30:02;;;;;;;4.40;2.70;;;;;;;16.52;100.00;100908.51;106616;1254;61778;-85
2023/05/22 03:32:51;;;;;;;6.20;2.60;;;;;;;16.82;100.00;100904.39;106478;1252;61499;-80
2023/05/22 03:35:42;;;;;;;5.90;3.00;;;;;;;17.10;100.00;100902.83;107352;1253;74961;-80
2023/05/22 03:38:31;;;;;;;6.40;2.60;;;;;;;17.33;100.00;100901.38;106572;1254;70313;-80
2023/05/22 03:41:19;;;;;;;5.40;2.40;;;;;;;17.57;100.00;100897.19;106716;1258;74453;-85
2023/05/22 03:44:07;;;;;;;3.50;2.20;;;;;;;17.79;100.00;100896.88;106370;1256;60529;-80
2023/05/22 03:46:55;;;;;;;4.60;2.50;;;;;;;17.99;95.40;100902.25;106481;1256;60392;-85
2023/05/22 03:49:43;;;;;;;4.70;2.70;;;;;;;18.18;91.44;100898.61;106301;1257;75333;-85
2023/05/22 03:52:31;;;;;;;3.80;2.30;;;;;;;18.33;86.99;100895.39;106208;1254;70024;-86
2023/05/22 03:55:19;;;;;;;3.90;2.20;;;;;;;18.48;83.75;100893.44;106388;1254;73847;-85
2023/05/22 03:58:09;;;;;;;4.60;2.20;;;;;;;18.60;84.95;100887.08;106493;1256;61884;-86
2023/05/22 04:00:59;;;;;;;5.20;2.30;;;;;;;18.75;81.97;100882.92;106304;1253;60367;-80
2023/05/22 04:03:49;;;;;;;6.60;2.70;;;;;;;18.87;79.50;100889.06;106491;1254;76104;-86
2023/05/22 04:06:41;;;;;;;4.10;2.40;;;;;;;18.94;76.60;100892.27;106606;1256;70264;-80
2023/05/22 04:09:30;;;;;;;3.10;2.00;;;;;;;19.03;75.59;100893.54;106380;1252;74151;-85
2023/05/22 04:12:18;;;;;;;6.10;2.90;;;;;;;19.14;75.94;100894.67;106286;1255;60514;-85
2023/05/22 04:15:07;;;;;;;4.80;2.60;;;;;;;19.24;71.36;100897.39;106482;1253;61470;-80
2023/05/22 04:17:56;;;;;;;3.50;2.10;;;;;;;19.34;68.86;100899.00;106304;1256;74926;-80
2023/05/22 04:20:44;;;;;;;5.80;2.60;;;;;;;19.39;67.43;100894.06;106373;1254;69717;-86
2023/05/22 04:23:32;;;;;;;4.90;2.20;;;;;;;19.47;67.75;100897.05;106509;1252;73890;-85
2023/05/22 04:26:20;;;;;;;7.80;2.30;;;;;;;19.55;66.25;100897.73;106592;1253;60503;-81
2023/05/22 04:29:09;;;;;;;8.50;2.40;;;;;;;19.57;66.74;100892.57;106526;1253;60393;-80
2023/05/22 04:31:59;;;;;;;4.50;2.20;;;;;;;19.57;67.34;100893.81;106481;1254;74063;-80
2023/05/22 04:34:51;;;;;;;3.30;2.10;;;;;;;19.70;66.42;100891.95;106458;1252;69786;-80
2023/05/22 04:37:41;;;;;;;4.40;2.50;;;;;;;19.90;62.98;100891.86;106375;1254;73928;-80
2023/05/22 04:40:32;;;;;;;4.00;2.50;;;;;;;19.94;64.52;100886.71;106276;1256;61260;-80
2023/05/22 04:43:22;;;;;;;5.00;2.70;;;;;;;20.07;67.52;100883.60;106567;1253;61077;-85
2023/05/22 04:46:11;;;;;;;3.80;2.20;;;;;;;20.19;64.22;100884.85;106464;1254;73695;-85
2023/05/22 04:49:00;;;;;;;4.80;2.40;;;;;;;20.33;66.35;100881.43;106426;1253;68447;-85
2023/05/22 04:51:48;;;;;;;5.80;2.30;;;;;;;20.49;64.11;100877.23;106487;1256;73392;-87
2023/05/22 04:54:38;;;;;;;5.50;2.50;;;;;;;20.65;61.78;100879.29;106461;1254;61390;-81
2023/05/22 04:57:26;;;;;;;6.10;2.40;;;;;;;20.81;59.24;100878.55;106619;1256;61420;-81
2023/05/22 05:00:15;;;;;;;3.90;2.30;;;;;;;20.79;57.78;100878.73;106422;1256;75687;-81
2023/05/22 05:03:06;;;;;;;5.00;2.70;;;;;;;20.78;56.85;100876.70;107029;1256;69726;-81
2023/05/22 05:05:55;;;;;;;3.60;2.60;;;;;;;20.84;58.41;100876.40;106503;1253;73486;-81
2023/05/22 05:08:46;;;;;;;4.80;2.40;;;;;;;21.02;60.23;100869.20;106340;1254;61422;-81
2023/05/22 05:11:35;;;;;;;5.60;1.80;;;;;;;21.28;59.11;100873.88;106375;1253;62254;-81
2023/05/22 05:14:24;;;;;;;6.60;2.80;;;;;;;21.47;58.67;100870.86;106315;1254;74426;-85
2023/05/22 05:17:12;;;;;;;4.10;2.60;;;;;;;21.53;55.76;100870.74;106243;1254;69974;-86
2023/05/22 05:20:00;;;;;;;5.80;2.50;;;;;;;21.56;55.00;100871.50;106428;1252;73560;-80
2023/05/22 05:22:55;;;;;;;2.70;2.30;;;;;;;21.57;55.34;100868.50;106480;1252;61327;-85
2023/05/22 05:25:43;;;;;;;4.80;2.50;;;;;;;21.70;55.87;100867.68;106222;1254;61511;-80
2023/05/22 05:28:32;;;;;;;6.10;2.90;;;;;;;21.84;56.86;100865.55;106525;1254;75813;-85
2023/05/22 05:31:21;;;;;;;4.20;2.60;;;;;;;22.02;57.19;100868.36;106235;1253;69768;-84
2023/05/22 05:34:19;;;;;;;7.10;2.40;;;;;;;22.10;53.54;100866.79;106167;1257;73454;-85
2023/05/22 05:37:18;;;;;;;6.30;2.90;;;;;;;22.16;51.57;100870.25;106287;1251;61243;-80
2023/05/22 05:40:08;;;;;;;3.00;2.20;;;;;;;22.16;51.39;100872.55;106426;1254;61553;-80
2023/05/22 05:42:59;;;;;;;6.50;2.90;;;;;;;22.28;51.96;100873.23;106213;1256;76034;-80
2023/05/22 05:45:48;;;;;;;7.80;2.70;;;;;;;22.49;50.74;100869.20;106402;1251;69948;-85
2023/05/22 05:48:36;;;;;;;6.60;2.20;;;;;;;22.63;50.22;100869.29;106282;1256;73600;-84
2023/05/22 05:51:26;;;;;;;7.70;2.50;;;;;;;22.80;50.11;100863.74;106437;1254;61330;-85
2023/05/22 05:54:16;;;;;;;3.60;2.40;;;;;;;22.92;50.23;100865.52;106257;1254;61304;-80
2023/05/22 05:57:06;;;;;;;13.00;8.00;;;;;;;23.05;51.26;100861.57;106406;1254;75070;-83
2023/05/22 05:59:55;;;;;;;4.60;2.20;;;;;;;23.28;50.47;100863.73;106690;1253;71377;-89
2023/05/22 06:03:02;;;;;;;4.40;2.80;;;;;;;23.37;49.66;100864.23;106654;1253;73934;-88
2023/05/22 06:06:06;;;;;;;6.70;2.90;;;;;;;23.57;51.01;100867.14;106350;1254;61307;-89
2023/05/22 06:09:15;;;;;;;5.50;2.60;;;;;;;23.77;50.53;100864.37;106394;1253;61248;-89
2023/05/22 06:12:31;;;;;;;7.20;2.70;;;;;;;23.99;50.69;100864.59;106474;1252;74468;-88
2023/05/22 06:15:20;;;;;;;6.50;3.20;;;;;;;24.10;49.34;100862.77;106292;1254;69456;-89
2023/05/22 06:18:08;;;;;;;6.00;3.10;;;;;;;24.20;48.29;100860.72;106294;1253;74609;-88
2023/05/22 06:20:57;;;;;;;4.10;2.80;;;;;;;24.31;48.75;100858.34;106488;1254;61247;-90
2023/05/22 06:23:47;;;;;;;4.80;2.90;;;;;;;24.36;48.87;100860.45;106666;1253;61257;-89
2023/05/22 06:26:35;;;;;;;4.70;3.50;;;;;;;24.56;48.54;100862.30;106455;1254;73982;-90
2023/05/22 06:29:23;;;;;;;4.50;3.00;;;;;;;24.61;46.41;100860.65;106637;1254;68174;-90
2023/05/22 06:32:12;;;;;;;6.60;3.30;;;;;;;24.65;48.22;100856.52;106464;1253;73864;-90
2023/05/22 06:35:01;;;;;;;5.80;3.20;;;;;;;24.88;49.02;100859.02;106548;1252;61379;-89
2023/05/22 06:37:51;;;;;;;6.80;3.30;;;;;;;25.08;48.83;100854.88;106613;1254;61285;-89
2023/05/22 06:40:40;;;;;;;8.30;3.30;;;;;;;25.26;47.61;100851.42;106591;1253;75708;-88
2023/05/22 06:43:37;;;;;;;7.80;3.50;;;;;;;25.54;47.09;100853.77;106730;1254;69917;-89
2023/05/22 06:46:33;;;;;;;7.00;3.40;;;;;;;25.82;45.11;100851.16;106632;1254;64819;-88
2023/05/22 06:49:23;;;;;;;9.90;3.50;;;;;;;25.94;44.64;100853.30;106588;1257;61221;-89
2023/05/22 06:52:14;;;;;;;6.30;3.40;;;;;;;25.90;44.35;100855.56;106438;1253;61902;-88
2023/05/22 06:55:05;;;;;;;5.00;3.30;;;;;;;25.86;45.08;100854.12;106383;1254;65914;-89
2023/05/22 06:58:00;;;;;;;6.60;3.60;;;;;;;25.92;45.12;100851.20;106506;1254;61349;-89
2023/05/22 07:00:48;;;;;;;7.20;3.60;;;;;;;26.01;45.74;100848.86;106438;1253;64916;-89
2023/05/22 07:03:42;;;;;;;6.70;3.70;;;;;;;26.17;45.94;100849.76;106672;1253;61244;-90
2023/05/22 07:06:53;;;;;;;7.60;3.40;;;;;;;26.29;44.21;100853.61;106773;1256;61110;-90
2023/05/22 07:09:42;;;;;;;6.30;3.40;;;;;;;26.30;43.95;100851.70;106478;1253;67075;-88
2023/05/22 07:12:31;;;;;;;6.10;3.00;;;;;;;26.33;44.22;100849.84;106525;1254;61269;-89
2023/05/22 07:15:21;;;;;;;4.30;3.00;;;;;;;26.41;44.55;100844.52;106392;1254;64974;-88
2023/05/22 07:18:13;;;;;;;5.20;3.50;;;;;;;26.61;45.47;100841.23;106527;1256;61206;-87
2023/05/22 07:21:02;;;;;;;8.00;3.00;;;;;;;26.77;44.98;100838.08;106306;1254;61135;-87
2023/05/22 07:23:51;;;;;;;5.00;2.60;;;;;;;26.91;44.24;100834.48;106590;1252;66833;-90
2023/05/22 07:26:44;;;;;;;4.70;3.00;;;;;;;26.93;44.73;100830.20;106239;1256;61227;-91
2023/05/22 07:29:32;;;;;;;8.60;3.00;;;;;;;27.05;43.83;100834.83;106250;1254;63825;-89
2023/05/22 07:32:21;;;;;;;5.10;2.70;;;;;;;27.04;43.70;100835.52;106421;1254;61332;-91
2023/05/22 07:35:11;;;;;;;5.80;3.10;;;;;;;26.98;44.21;100832.91;106649;1253;61250;-93
2023/05/22 07:38:02;;;;;;;3.40;2.50;;;;;;;27.13;43.78;100831.78;106517;1254;66002;-89
2023/05/22 07:40:51;;;;;;;5.90;3.10;;;;;;;27.12;43.50;100830.41;106591;1252;61263;-88
2023/05/22 07:43:39;;;;;;;5.30;2.90;;;;;;;26.97;45.92;100834.80;106501;1254;65721;-89
2023/05/22 07:46:28;;;;;;;5.40;2.70;;;;;;;27.12;46.59;100834.74;106422;1254;61513;-88
2023/05/22 07:49:20;;;;;;;3.60;2.60;;;;;;;27.42;45.01;100836.38;106461;1251;61206;-89
2023/05/22 07:52:10;;;;;;;5.10;2.80;;;;;;;27.41;44.22;100836.60;106777;1254;67024;-88
2023/05/22 07:54:59;;;;;;;8.90;2.70;;;;;;;27.30;45.38;100835.60;106446;1251;61833;-89
2023/05/22 07:57:48;;;;;;;6.10;2.90;;;;;;;27.29;45.12;100830.88;106546;1254;64989;-88
2023/05/22 08:00:45;;;;;;;4.30;2.50;;;;;;;27.38;44.97;100822.70;106526;1254;61288;-89
2023/05/22 08:03:37;;;;;;;5.50;3.00;;;;;;;27.54;45.25;100818.04;106790;1256;61105;-89
2023/05/22 08:06:25;;;;;;;6.60;2.70;;;;;;;27.73;45.59;100819.66;106585;1254;67236;-89
2023/05/22 08:09:13;;;;;;;3.50;2.30;;;;;;;27.90;44.87;100820.79;106812;1254;69337;-88
2023/05/22 08:12:02;;;;;;;4.70;2.30;;;;;;;28.07;44.71;100819.71;106580;1256;64181;-87
2023/05/22 08:14:50;;;;;;;3.90;2.20;;;;;;;28.24;44.11;100817.98;106403;1257;61130;-86
2023/05/22 08:17:38;;;;;;;3.40;1.90;;;;;;;28.24;43.58;100820.08;106621;1252;61147;-87
2023/05/22 08:20:26;;;;;;;4.20;2.30;;;;;;;28.25;43.31;100819.84;106648;1254;67489;-86
2023/05/22 08:23:14;;;;;;;4.00;2.30;;;;;;;28.20;43.34;100819.09;106723;1254;61518;-87
2023/05/22 08:26:03;;;;;;;4.60;2.20;;;;;;;28.34;44.38;100824.63;106320;1254;65063;-88
2023/05/22 08:28:51;;;;;;;2.60;2.10;;;;;;;28.67;43.46;100823.08;106411;1253;61275;-88
2023/05/22 08:31:40;;;;;;;5.20;2.20;;;;;;;28.96;43.50;100817.97;106671;1251;61492;-88
2023/05/22 08:34:28;;;;;;;3.60;2.60;;;;;;;29.16;42.26;100810.34;106690;1256;66983;-87
2023/05/22 08:37:16;;;;;;;2.70;2.30;;;;;;;29.24;41.95;100812.30;106536;1252;61413;-92
2023/05/22 08:40:07;;;;;;;5.70;2.40;;;;;;;29.28;41.09;100814.64;106409;1253;65107;-88
2023/05/22 08:42:56;;;;;;;3.30;2.70;;;;;;;29.22;40.82;100819.13;106391;1260;61260;-92
2023/05/22 08:45:44;;;;;;;9.30;2.60;;;;;;;29.01;41.16;100817.92;106535;1256;61135;-89
2023/05/22 08:48:32;;;;;;;4.30;2.70;;;;;;;28.98;42.58;100816.46;106692;1254;66903;-92
2023/05/22 08:51:21;;;;;;;2.50;2.10;;;;;;;28.97;43.51;100816.13;106649;1253;61262;-88
2023/05/22 08:54:09;;;;;;;7.20;3.00;;;;;;;29.15;43.01;100818.36;106497;1254;65003;-88
2023/05/22 08:56:57;;;;;;;5.70;2.80;;;;;;;29.39;42.55;100819.24;106393;1253;61221;-89
2023/05/22 08:59:45;;;;;;;4.00;2.40;;;;;;;29.52;42.61;100815.63;106356;1254;262428;-92
2023/05/22 09:02:34;;;;;;;4.30;2.70;;;;;;;29.69;42.06;100815.51;106517;1251;65807;-92
2023/05/22 09:05:25;;;;;;;4.20;2.90;;;;;;;29.74;41.22;100815.04;106562;1253;61263;-89
2023/05/22 09:08:14;;;;;;;3.90;2.90;;;;;;;29.89;41.65;100816.64;106798;1254;63795;-90
2023/05/22 09:11:09;;;;;;;4.30;2.80;;;;;;;30.04;41.72;100813.16;106580;1254;61682;-90
2023/05/22 09:14:07;;;;;;;6.80;3.10;;;;;;;30.32;41.44;100812.27;106361;1256;61157;-89
2023/05/22 09:16:56;;;;;;;3.70;2.80;;;;;;;30.73;40.69;100812.95;106493;1256;68742;-88
2023/05/22 09:19:46;;;;;;;5.90;3.10;;;;;;;31.18;39.42;100815.24;106407;1254;62350;-88
2023/05/22 09:22:38;;;;;;;3.40;2.50;;;;;;;31.48;38.68;100814.66;106542;1256;65187;-89
2023/05/22 09:25:26;;;;;;;4.40;2.60;;;;;;;31.58;37.83;100812.84;106484;1252;61333;-88
2023/05/22 09:28:15;;;;;;;3.80;2.70;;;;;;;31.63;38.21;100809.72;106437;1253;61349;-88
2023/05/22 09:31:03;;;;;;;4.70;2.80;;;;;;;31.69;38.10;100807.33;106530;1253;66894;-88
2023/05/22 09:33:51;;;;;;;8.20;3.00;;;;;;;31.77;37.25;100807.77;106743;1254;61326;-89
2023/05/22 09:36:40;;;;;;;3.50;3.00;;;;;;;31.65;36.44;100811.89;106421;1257;64072;-88
2023/05/22 09:39:40;;;;;;;4.60;3.10;;;;;;;31.32;36.75;100811.94;106527;1253;59630;-88
2023/05/22 09:42:28;;;;;;;7.80;2.90;;;;;;;31.14;37.10;100809.30;106616;1254;59462;-88
2023/05/22 09:45:18;;;;;;;3.20;2.40;;;;;;;30.98;37.42;100812.86;106497;1252;66390;-88
2023/05/22 09:48:07;;;;;;;7.10;2.70;;;;;;;30.71;38.37;100807.80;106847;1254;61222;-89
2023/05/22 09:50:55;;;;;;;5.00;3.10;;;;;;;30.62;38.69;100813.06;106364;1257;65180;-92
2023/05/22 09:53:43;;;;;;;6.00;3.00;;;;;;;30.39;38.54;100810.08;106716;1254;61358;-92
2023/05/22 09:56:31;;;;;;;6.50;3.40;;;;;;;30.08;39.29;100810.67;106533;1254;61220;-92
2023/05/22 09:59:31;;;;;;;4.10;3.00;;;;;;;29.88;40.11;100806.50;106340;1254;65677;-92
2023/05/22 10:02:24;;;;;;;5.20;3.00;;;;;;;29.72;40.06;100801.60;106635;1259;61263;-91
2023/05/22 10:05:20;;;;;;;4.90;3.00;;;;;;;29.60;40.80;100796.52;106490;1254;64915;-94
2023/05/22 10:08:10;;;;;;;5.10;3.30;;;;;;;29.64;41.24;100793.46;106628;1254;61567;-93
2023/05/22 10:10:59;;;;;;;7.30;3.20;;;;;;;29.69;41.24;100792.35;106566;1256;61340;-92
2023/05/22 10:13:47;;;;;;;6.60;3.50;;;;;;;29.40;42.01;100793.75;106425;1254;66314;-93
2023/05/22 10:16:40;;;;;;;5.30;3.30;;;;;;;29.53;43.18;100787.32;106552;1254;61100;-92
2023/05/22 10:19:31;;;;;;;4.80;3.10;;;;;;;29.71;41.71;100785.83;106615;1254;66699;-93
2023/05/22 10:22:21;;;;;;;5.30;3.60;;;;;;;29.68;40.04;100785.25;106490;1254;61276;-93
2023/05/22 10:25:10;;;;;;;5.70;3.60;;;;;;;29.49;39.48;100781.45;106380;1253;61282;-94
2023/05/22 10:27:59;;;;;;;5.80;3.40;;;;;;;29.34;40.17;100784.02;106635;1254;65992;-92
2023/05/22 10:30:57;;;;;;;4.90;3.20;;;;;;;29.22;39.70;100785.36;106456;1257;61780;-93
2023/05/22 10:34:05;;;;;;;6.40;3.20;;;;;;;29.18;40.87;100773.61;106420;1253;65182;-93
2023/05/22 10:37:01;;;;;;;6.50;3.40;;;;;;;29.36;40.94;100765.11;106754;1256;61253;-93
2023/05/22 10:40:07;;;;;;;6.10;3.50;;;;;;;29.48;41.34;100764.48;106364;1254;61229;-93
2023/05/22 10:43:02;;;;;;;7.30;3.30;;;;;;;29.54;40.09;100765.30;106450;1254;66024;-93
2023/05/22 10:46:01;;;;;;;8.70;3.70;;;;;;;29.47;39.34;100760.87;106850;1254;61913;-93
2023/05/22 10:48:52;;;;;;;5.00;3.50;;;;;;;29.41;39.23;100760.79;106506;1256;65247;-94
2023/05/22 10:51:41;;;;;;;6.40;3.50;;;;;;;29.33;38.73;100757.80;106472;1254;61251;-93
2023/05/22 10:54:42;;;;;;;6.60;3.80;;;;;;;29.25;39.02;100756.73;106501;1251;61112;-93
2023/05/22 10:57:33;;;;;;;6.20;3.50;;;;;;;29.13;39.50;100757.52;106620;1254;65675;-95
2023/05/22 11:00:21;;;;;;;9.10;4.10;;;;;;;29.04;39.79;100755.40;106703;1254;61288;-94
2023/05/22 11:03:11;;;;;;;8.00;3.80;;;;;;;29.11;40.69;100751.10;106601;1254;73116;-91
2023/05/22 11:06:06;;;;;;;5.70;3.90;;;;;;;29.19;40.21;100748.61;106594;1251;61343;-92
2023/05/22 11:08:55;;;;;;;7.90;3.90;;;;;;;29.18;40.44;100748.85;106391;1252;61231;-92
2023/05/22 11:11:43;;;;;;;5.90;3.20;;;;;;;29.21;40.14;100751.11;106491;1254;65978;-92
2023/05/22 11:14:32;;;;;;;7.60;3.40;;;;;;;29.24;40.14;100744.77;106512;1254;61225;-85
2023/05/22 11:17:48;;;;;;;4.70;3.30;;;;;;;29.38;39.97;100745.41;106689;1256;65333;-88
2023/05/22 11:20:38;;;;;;;7.00;3.40;;;;;;;29.37;39.97;100745.81;106580;1254;61253;-88
2023/05/22 11:23:26;;;;;;;6.50;3.30;;;;;;;29.34;40.17;100744.69;106214;1252;61147;-82
2023/05/22 11:26:19;;;;;;;4.90;3.30;;;;;;;29.37;41.51;100742.84;106427;1256;67102;-89
2023/05/22 16:47:04;;;;;;;8.30;6.10;;;;;;;23.16;100.00;100621.70;106645;1254;68496;-88
2023/05/22 16:49:52;;;;;;;10.60;6.50;;;;;;;23.24;100.00;100625.95;106374;1255;72693;-88
2023/05/22 16:52:40;;;;;;;11.20;6.50;;;;;;;23.32;100.00;100632.27;106439;1257;61336;-89
2023/05/22 16:55:28;;;;;;;50.90;26.50;;;;;;;23.19;100.00;100633.48;106435;1253;61250;-88
2023/05/22 16:58:16;;;;;;;36.90;20.20;;;;;;;23.17;100.00;100635.75;106501;1257;74782;-89
2023/05/22 17:01:05;;;;;;;15.10;9.10;;;;;;;23.17;100.00;100636.14;106905;1256;66466;-89
2023/05/22 17:03:53;;;;;;;12.40;6.40;;;;;;;23.36;100.00;100641.77;106798;1253;71316;-88
2023/05/22 17:06:44;;;;;;;8.00;5.40;;;;;;;23.45;100.00;100642.63;109314;1257;59461;-86
2023/05/22 17:09:32;;;;;;;10.60;4.80;;;;;;;23.48;100.00;100645.80;109316;1252;59933;-86
2023/05/22 17:12:19;;;;;;;4.20;3.70;;;;;;;23.45;100.00;100647.80;109203;1254;74666;-86
2023/05/22 17:15:07;;;;;;;5.90;3.70;;;;;;;23.50;100.00;100649.67;108010;1254;69245;-88
2023/05/22 17:17:56;;;;;;;5.80;3.60;;;;;;;23.59;100.00;100654.36;106849;1254;72341;-89
2023/05/22 17:20:48;;;;;;;7.00;3.60;;;;;;;23.61;100.00;100664.27;106416;1254;61434;-89
2023/05/22 17:23:36;;;;;;;6.10;2.60;;;;;;;23.76;100.00;100669.27;106491;1254;61356;-89
2023/05/22 17:26:24;;;;;;;5.60;2.90;;;;;;;23.91;100.00;100668.27;106532;1254;74808;-88
2023/05/22 17:29:12;;;;;;;4.10;3.20;;;;;;;23.88;100.00;100670.66;106337;1254;68706;-89
2023/05/22 17:32:00;;;;;;;3.90;2.90;;;;;;;23.80;100.00;100679.89;106587;1252;72669;-87
2023/05/22 17:34:48;;;;;;;3.40;2.30;;;;;;;23.63;100.00;100682.41;106661;1252;61269;-87
2023/05/22 17:37:36;;;;;;;6.00;2.90;;;;;;;23.70;100.00;100678.69;106435;1254;61108;-88
2023/05/22 17:40:24;;;;;;;4.40;2.40;;;;;;;23.58;100.00;100677.91;106583;1254;75574;-87
2023/05/22 17:43:33;;;;;;;4.40;2.50;;;;;;;23.55;100.00;100672.42;106510;1257;67378;-87
2023/05/22 17:46:21;;;;;;;6.00;2.80;;;;;;;23.55;100.00;100674.11;106400;1254;71309;-87
2023/05/22 17:49:09;;;;;;;2.70;2.40;;;;;;;23.53;100.00;100675.49;106691;1253;61241;-88
2023/05/22 17:51:57;;;;;;;4.40;2.50;;;;;;;23.46;100.00;100670.94;106549;1253;61447;-88
2023/05/22 17:54:46;;;;;;;4.90;3.20;;;;;;;23.50;100.00;100662.50;106490;1255;74831;-89
2023/05/22 17:57:34;;;;;;;6.90;3.50;;;;;;;23.45;100.00;100661.18;106363;1257;68209;-87
2023/05/22 18:00:22;;;;;;;8.00;3.60;;;;;;;23.24;100.00;100659.01;106570;1254;73619;-89
2023/05/22 18:03:10;;;;;;;6.10;3.70;;;;;;;23.27;100.00;100655.08;106502;1254;61309;-89
2023/05/22 18:05:58;;;;;;;5.60;3.50;;;;;;;22.98;100.00;100660.08;106461;1253;60050;-89
2023/05/22 18:08:47;;;;;;;5.40;3.50;;;;;;;22.97;100.00;100658.38;106493;1256;75149;-88
2023/05/22 18:11:34;;;;;;;6.50;3.50;;;;;;;22.91;100.00;100657.90;106386;1254;68742;-88
2023/05/22 18:14:22;;;;;;;5.90;3.40;;;;;;;22.82;100.00;100659.49;106514;1254;72492;-89
2023/05/22 18:17:11;;;;;;;6.00;3.40;;;;;;;22.73;100.00;100654.64;106574;1253;62110;-88
2023/05/22 18:19:59;;;;;;;7.90;3.60;;;;;;;22.68;100.00;100653.31;106922;1254;61301;-88
2023/05/22 18:22:47;;;;;;;5.00;3.80;;;;;;;22.64;100.00;100649.21;106503;1254;75755;-87
2023/05/22 18:25:35;;;;;;;6.50;3.90;;;;;;;22.59;100.00;100649.97;106718;1254;67186;-88
2023/05/22 18:28:25;;;;;;;4.40;3.60;;;;;;;22.54;100.00;100647.85;106625;1253;73698;-88
2023/05/22 18:31:12;;;;;;;4.30;3.50;;;;;;;22.34;100.00;100645.05;106599;1257;61211;-87
2023/05/22 18:34:00;;;;;;;4.10;3.40;;;;;;;22.08;100.00;100645.71;106719;1252;61313;-82
2023/05/22 18:36:49;;;;;;;5.70;3.80;;;;;;;22.05;100.00;100649.98;106556;1254;74487;-82
2023/05/22 18:39:37;;;;;;;4.10;3.60;;;;;;;22.03;100.00;100645.96;106504;1253;69843;-82
2023/05/22 18:42:25;;;;;;;6.50;3.80;;;;;;;21.80;100.00;100640.75;106433;1251;71415;-83
2023/05/22 18:45:14;;;;;;;5.30;3.90;;;;;;;21.73;100.00;100641.79;106511;1254;61462;-83
2023/05/22 18:48:01;;;;;;;9.10;4.50;;;;;;;21.66;100.00;100640.08;106257;1260;61211;-88
2023/05/22 18:50:50;;;;;;;8.20;4.90;;;;;;;21.58;100.00;100640.94;106368;1254;74574;-87
2023/05/22 18:53:39;;;;;;;6.80;5.10;;;;;;;21.48;100.00;100644.83;106512;1253;69233;-86
2023/05/22 18:56:27;;;;;;;9.30;5.90;;;;;;;21.32;100.00;100640.33;106482;1254;74030;-88
2023/05/22 18:59:15;;;;;;;10.10;5.80;;;;;;;21.24;100.00;100638.72;106609;1254;61256;-89
2023/05/22 19:02:04;;;;;;;8.30;5.80;;;;;;;21.11;100.00;100639.30;106647;1254;61298;-86
2023/05/22 19:04:52;;;;;;;7.40;4.80;;;;;;;20.97;100.00;100636.16;106569;1257;75014;-87